sensor_id;sensor_type;location;lat;lon;timestamp;P1;durP1;ratioP1;P2;durP2;ratioP2
68523;SDS011;55524;51.380;13.372;2023-01-16T07:51:08;3.70;;;1.00;;
68523;SDS011;55524;51.380;13.372;2023-01-16T07:53:35;2.05;;;0.90;;
68523;SDS011;55524;51.380;13.372;2023-01-16T07:56:02;1.80;;;1.15;;
68523;SDS011;55524;51.380;13.372;2023-01-16T07:58:29;1.05;;;0.98;;
68523;SDS011;55524;51.380;13.372;2023-01-16T08:00:55;1.17;;;1.10;;
68523;SDS011;55524;51.380;13.372;2023-01-16T08:03:22;2.20;;;1.08;;
68523;SDS011;55524;51.380;13.372;2023-01-16T08:05:49;2.38;;;1.20;;
68523;SDS011;55524;51.380;13.372;2023-01-16T08:08:20;1.95;;;1.08;;
68523;SDS011;55524;51.380;13.372;2023-01-16T08:10:46;16.42;;;2.20;;
68523;SDS011;55524;51.380;13.372;2023-01-16T08:13:12;3.38;;;1.17;;
68523;SDS011;55524;51.380;13.372;2023-01-16T08:15:40;5.25;;;1.10;;
68523;SDS011;55524;51.380;13.372;2023-01-16T08:18:06;1.98;;;1.05;;
68523;SDS011;55524;51.380;13.372;2023-01-16T08:20:33;1.40;;;1.00;;
68523;SDS011;55524;51.380;13.372;2023-01-16T08:22:59;6.72;;;1.35;;
68523;SDS011;55524;51.380;13.372;2023-01-16T08:25:26;1.95;;;1.25;;
68523;SDS011;55524;51.380;13.372;2023-01-16T08:27:52;4.13;;;1.60;;
68523;SDS011;55524;51.380;13.372;2023-01-16T08:30:18;1.95;;;1.30;;
68523;SDS011;55524;51.380;13.372;2023-01-16T08:32:44;9.88;;;1.38;;
68523;SDS011;55524;51.380;13.372;2023-01-16T08:35:11;1.30;;;0.93;;
68523;SDS011;55524;51.380;13.372;2023-01-16T08:37:37;3.88;;;1.20;;
68523;SDS011;55524;51.380;13.372;2023-01-16T08:40:04;1.02;;;1.00;;
68523;SDS011;55524;51.380;13.372;2023-01-16T08:42:30;2.17;;;0.80;;
68523;SDS011;55524;51.380;13.372;2023-01-16T08:45:15;2.58;;;1.20;;
68523;SDS011;55524;51.380;13.372;2023-01-16T08:48:00;3.33;;;1.10;;
68523;SDS011;55524;51.380;13.372;2023-01-16T08:50:46;1.52;;;1.20;;
68523;SDS011;55524;51.380;13.372;2023-01-16T08:53:31;1.73;;;1.13;;
68523;SDS011;55524;51.380;13.372;2023-01-16T08:55:58;0.90;;;0.90;;
68523;SDS011;55524;51.380;13.372;2023-01-16T08:58:24;2.10;;;1.20;;
68523;SDS011;55524;51.380;13.372;2023-01-16T09:00:50;1.42;;;0.98;;
68523;SDS011;55524;51.380;13.372;2023-01-16T09:03:17;0.93;;;0.93;;
68523;SDS011;55524;51.380;13.372;2023-01-16T09:05:43;3.53;;;1.10;;
68523;SDS011;55524;51.380;13.372;2023-01-16T09:08:10;1.25;;;1.08;;
68523;SDS011;55524;51.380;13.372;2023-01-16T09:10:37;0.80;;;0.80;;
68523;SDS011;55524;51.380;13.372;2023-01-16T09:13:03;1.92;;;0.90;;
68523;SDS011;55524;51.380;13.372;2023-01-16T09:15:49;1.20;;;1.00;;
68523;SDS011;55524;51.380;13.372;2023-01-16T09:18:15;2.67;;;0.82;;
68523;SDS011;55524;51.380;13.372;2023-01-16T09:20:41;1.42;;;0.73;;
68523;SDS011;55524;51.380;13.372;2023-01-16T09:23:07;0.93;;;0.90;;
68523;SDS011;55524;51.380;13.372;2023-01-16T09:25:34;2.17;;;0.85;;
68523;SDS011;55524;51.380;13.372;2023-01-16T09:28:00;2.97;;;0.95;;
68523;SDS011;55524;51.380;13.372;2023-01-16T09:30:27;5.82;;;1.00;;
68523;SDS011;55524;51.380;13.372;2023-01-16T09:32:53;1.27;;;1.00;;
68523;SDS011;55524;51.380;13.372;2023-01-16T09:35:19;1.02;;;0.77;;
68523;SDS011;55524;51.380;13.372;2023-01-16T09:37:46;3.13;;;1.00;;
68523;SDS011;55524;51.380;13.372;2023-01-16T09:40:13;3.92;;;0.90;;
68523;SDS011;55524;51.380;13.372;2023-01-16T09:45:35;2.05;;;1.00;;
68523;SDS011;55524;51.380;13.372;2023-01-16T09:48:05;1.25;;;0.80;;
68523;SDS011;55524;51.380;13.372;2023-01-16T09:50:44;2.80;;;1.10;;
68523;SDS011;55524;51.380;13.372;2023-01-16T09:53:20;1.45;;;0.90;;
68523;SDS011;55524;51.380;13.372;2023-01-16T09:56:21;2.53;;;1.20;;
68523;SDS011;55524;51.380;13.372;2023-01-16T10:02:01;0.93;;;0.73;;
68523;SDS011;55524;51.380;13.372;2023-01-16T10:04:36;3.05;;;0.90;;
68523;SDS011;55524;51.380;13.372;2023-01-16T10:12:10;2.13;;;0.70;;
68523;SDS011;55524;51.380;13.372;2023-01-16T10:22:50;1.08;;;0.98;;
68523;SDS011;55524;51.380;13.372;2023-01-16T10:25:31;0.85;;;0.70;;
68523;SDS011;55524;51.380;13.372;2023-01-16T10:28:08;2.38;;;0.70;;
68523;SDS011;55524;51.380;13.372;2023-01-16T10:30:54;1.25;;;0.68;;
68523;SDS011;55524;51.380;13.372;2023-01-16T10:33:59;19.55;;;2.55;;
68523;SDS011;55524;51.380;13.372;2023-01-16T10:36:36;2.42;;;1.00;;
68523;SDS011;55524;51.380;13.372;2023-01-16T10:39:10;1.73;;;0.70;;
68523;SDS011;55524;51.380;13.372;2023-01-16T10:41:39;0.93;;;0.80;;
68523;SDS011;55524;51.380;13.372;2023-01-16T10:44:31;0.80;;;0.80;;
68523;SDS011;55524;51.380;13.372;2023-01-16T10:47:30;3.50;;;0.90;;
68523;SDS011;55524;51.380;13.372;2023-01-16T10:50:17;3.13;;;0.70;;
68523;SDS011;55524;51.380;13.372;2023-01-16T10:52:46;3.47;;;0.80;;
68523;SDS011;55524;51.380;13.372;2023-01-16T10:55:13;3.95;;;0.77;;
68523;SDS011;55524;51.380;13.372;2023-01-16T10:57:58;1.20;;;0.57;;
68523;SDS011;55524;51.380;13.372;2023-01-16T11:00:35;0.95;;;0.63;;
68523;SDS011;55524;51.380;13.372;2023-01-16T11:03:14;1.60;;;0.90;;
68523;SDS011;55524;51.380;13.372;2023-01-16T11:05:47;3.33;;;0.95;;
68523;SDS011;55524;51.380;13.372;2023-01-16T11:08:15;1.73;;;0.77;;
68523;SDS011;55524;51.380;13.372;2023-01-16T11:10:44;1.40;;;0.70;;
68523;SDS011;55524;51.380;13.372;2023-01-16T11:13:13;3.40;;;0.80;;
68523;SDS011;55524;51.380;13.372;2023-01-16T11:18:57;5.13;;;1.15;;
68523;SDS011;55524;51.380;13.372;2023-01-16T11:21:26;0.80;;;0.77;;
68523;SDS011;55524;51.380;13.372;2023-01-16T11:26:24;1.30;;;0.90;;
68523;SDS011;55524;51.380;13.372;2023-01-16T11:28:52;2.13;;;1.00;;
68523;SDS011;55524;51.380;13.372;2023-01-16T11:31:22;1.35;;;0.95;;
68523;SDS011;55524;51.380;13.372;2023-01-16T11:34:00;2.95;;;0.93;;
68523;SDS011;55524;51.380;13.372;2023-01-16T11:36:33;3.85;;;1.50;;
68523;SDS011;55524;51.380;13.372;2023-01-16T11:39:01;3.90;;;1.50;;
68523;SDS011;55524;51.380;13.372;2023-01-16T11:41:29;4.00;;;1.80;;
68523;SDS011;55524;51.380;13.372;2023-01-16T11:47:10;2.97;;;1.80;;
68523;SDS011;55524;51.380;13.372;2023-01-16T11:49:46;2.70;;;1.90;;
68523;SDS011;55524;51.380;13.372;2023-01-16T11:52:17;11.68;;;3.60;;
68523;SDS011;55524;51.380;13.372;2023-01-16T11:54:58;14.68;;;4.72;;
68523;SDS011;55524;51.380;13.372;2023-01-16T12:00:02;8.40;;;4.38;;
68523;SDS011;55524;51.380;13.372;2023-01-16T12:05:26;2.90;;;2.20;;
68523;SDS011;55524;51.380;13.372;2023-01-16T12:17:13;1.38;;;0.80;;
68523;SDS011;55524;51.380;13.372;2023-01-16T12:25:16;2.50;;;1.40;;
68523;SDS011;55524;51.380;13.372;2023-01-16T12:33:41;1.27;;;0.90;;
68523;SDS011;55524;51.380;13.372;2023-01-16T12:36:25;1.30;;;0.90;;
68523;SDS011;55524;51.380;13.372;2023-01-16T12:52:55;0.63;;;0.60;;
68523;SDS011;55524;51.380;13.372;2023-01-16T12:55:43;1.85;;;0.82;;
68523;SDS011;55524;51.380;13.372;2023-01-16T12:58:30;2.60;;;0.80;;
68523;SDS011;55524;51.380;13.372;2023-01-16T13:01:08;2.25;;;0.70;;
68523;SDS011;55524;51.380;13.372;2023-01-16T13:03:51;1.77;;;0.70;;
68523;SDS011;55524;51.380;13.372;2023-01-16T13:09:02;0.70;;;0.70;;
68523;SDS011;55524;51.380;13.372;2023-01-16T13:11:38;0.80;;;0.80;;
68523;SDS011;55524;51.380;13.372;2023-01-16T13:14:30;0.80;;;0.73;;
68523;SDS011;55524;51.380;13.372;2023-01-16T13:17:01;3.97;;;0.90;;
68523;SDS011;55524;51.380;13.372;2023-01-16T13:19:29;0.93;;;0.80;;
68523;SDS011;55524;51.380;13.372;2023-01-16T13:27:23;1.38;;;0.73;;
68523;SDS011;55524;51.380;13.372;2023-01-16T13:30:04;1.75;;;1.02;;
68523;SDS011;55524;51.380;13.372;2023-01-16T13:44:03;0.70;;;0.70;;
68523;SDS011;55524;51.380;13.372;2023-01-16T13:46:50;0.95;;;0.80;;
68523;SDS011;55524;51.380;13.372;2023-01-16T13:49:20;4.43;;;1.10;;
68523;SDS011;55524;51.380;13.372;2023-01-16T13:51:50;1.35;;;1.10;;
68523;SDS011;55524;51.380;13.372;2023-01-16T13:54:25;2.40;;;1.05;;
68523;SDS011;55524;51.380;13.372;2023-01-16T13:57:03;1.15;;;1.05;;
68523;SDS011;55524;51.380;13.372;2023-01-16T13:59:43;2.80;;;1.20;;
68523;SDS011;55524;51.380;13.372;2023-01-16T14:02:23;3.80;;;1.40;;
68523;SDS011;55524;51.380;13.372;2023-01-16T14:05:20;3.97;;;1.52;;
68523;SDS011;55524;51.380;13.372;2023-01-16T14:13:27;2.75;;;1.50;;
68523;SDS011;55524;51.380;13.372;2023-01-16T14:19:23;1.63;;;1.50;;
68523;SDS011;55524;51.380;13.372;2023-01-16T14:21:49;3.80;;;1.42;;
68523;SDS011;55524;51.380;13.372;2023-01-16T14:24:43;1.45;;;1.35;;
68523;SDS011;55524;51.380;13.372;2023-01-16T14:27:14;1.25;;;1.15;;
68523;SDS011;55524;51.380;13.372;2023-01-16T14:29:57;2.75;;;1.20;;
68523;SDS011;55524;51.380;13.372;2023-01-16T14:32:27;4.43;;;1.25;;
68523;SDS011;55524;51.380;13.372;2023-01-16T14:34:59;2.30;;;1.52;;
68523;SDS011;55524;51.380;13.372;2023-01-16T14:37:30;5.00;;;1.23;;
68523;SDS011;55524;51.380;13.372;2023-01-16T14:39:58;2.55;;;1.60;;
68523;SDS011;55524;51.380;13.372;2023-01-16T14:42:53;6.20;;;1.90;;
68523;SDS011;55524;51.380;13.372;2023-01-16T14:45:40;6.18;;;2.47;;
68523;SDS011;55524;51.380;13.372;2023-01-16T14:48:45;9.90;;;4.45;;
68523;SDS011;55524;51.380;13.372;2023-01-16T14:51:33;9.27;;;4.00;;
68523;SDS011;55524;51.380;13.372;2023-01-16T14:54:31;5.82;;;2.90;;
68523;SDS011;55524;51.380;13.372;2023-01-16T14:57:18;3.13;;;1.67;;
68523;SDS011;55524;51.380;13.372;2023-01-16T14:59:54;4.50;;;1.75;;
68523;SDS011;55524;51.380;13.372;2023-01-16T15:04:59;6.95;;;1.98;;
68523;SDS011;55524;51.380;13.372;2023-01-16T15:07:40;3.47;;;1.88;;
68523;SDS011;55524;51.380;13.372;2023-01-16T15:10:17;3.67;;;2.10;;
68523;SDS011;55524;51.380;13.372;2023-01-16T15:13:13;10.38;;;3.90;;
68523;SDS011;55524;51.380;13.372;2023-01-16T15:15:46;1.80;;;1.55;;
68523;SDS011;55524;51.380;13.372;2023-01-16T15:18:27;3.15;;;1.88;;
68523;SDS011;55524;51.380;13.372;2023-01-16T15:21:16;4.60;;;2.08;;
68523;SDS011;55524;51.380;13.372;2023-01-16T15:24:03;2.33;;;1.30;;
68523;SDS011;55524;51.380;13.372;2023-01-16T15:26:45;3.20;;;1.38;;
68523;SDS011;55524;51.380;13.372;2023-01-16T15:30:12;2.80;;;1.50;;
68523;SDS011;55524;51.380;13.372;2023-01-16T15:32:18;4.57;;;1.33;;
68523;SDS011;55524;51.380;13.372;2023-01-16T15:34:47;1.75;;;1.27;;
68523;SDS011;55524;51.380;13.372;2023-01-16T15:37:29;2.83;;;1.27;;
68523;SDS011;55524;51.380;13.372;2023-01-16T15:39:57;1.77;;;1.42;;
68523;SDS011;55524;51.380;13.372;2023-01-16T15:42:24;9.82;;;3.03;;
68523;SDS011;55524;51.380;13.372;2023-01-16T15:53:20;3.47;;;1.13;;
68523;SDS011;55524;51.380;13.372;2023-01-16T15:55:49;2.97;;;1.40;;
68523;SDS011;55524;51.380;13.372;2023-01-16T15:58:24;5.15;;;1.90;;
68523;SDS011;55524;51.380;13.372;2023-01-16T16:00:54;2.40;;;1.50;;
68523;SDS011;55524;51.380;13.372;2023-01-16T16:03:44;3.10;;;1.60;;
68523;SDS011;55524;51.380;13.372;2023-01-16T16:06:15;5.55;;;1.50;;
68523;SDS011;55524;51.380;13.372;2023-01-16T16:08:47;2.17;;;1.42;;
68523;SDS011;55524;51.380;13.372;2023-01-16T16:11:18;2.45;;;1.30;;
68523;SDS011;55524;51.380;13.372;2023-01-16T16:14:20;2.70;;;1.50;;
68523;SDS011;55524;51.380;13.372;2023-01-16T16:17:29;7.53;;;1.35;;
68523;SDS011;55524;51.380;13.372;2023-01-16T16:20:32;1.58;;;1.20;;
68523;SDS011;55524;51.380;13.372;2023-01-16T16:28:17;3.38;;;1.77;;
68523;SDS011;55524;51.380;13.372;2023-01-16T16:30:45;2.22;;;1.45;;
68523;SDS011;55524;51.380;13.372;2023-01-16T16:33:19;3.15;;;1.00;;
68523;SDS011;55524;51.380;13.372;2023-01-16T16:35:46;3.00;;;1.20;;
68523;SDS011;55524;51.380;13.372;2023-01-16T16:43:45;3.38;;;1.27;;
68523;SDS011;55524;51.380;13.372;2023-01-16T16:48:49;4.63;;;1.50;;
68523;SDS011;55524;51.380;13.372;2023-01-16T16:54:13;2.08;;;1.45;;
68523;SDS011;55524;51.380;13.372;2023-01-16T16:56:48;5.20;;;2.13;;
68523;SDS011;55524;51.380;13.372;2023-01-16T16:59:19;3.15;;;1.95;;
68523;SDS011;55524;51.380;13.372;2023-01-16T17:01:50;5.35;;;2.10;;
68523;SDS011;55524;51.380;13.372;2023-01-16T17:04:22;3.78;;;1.90;;
68523;SDS011;55524;51.380;13.372;2023-01-16T17:06:50;3.28;;;2.13;;
68523;SDS011;55524;51.380;13.372;2023-01-16T17:09:17;3.25;;;1.83;;
68523;SDS011;55524;51.380;13.372;2023-01-16T17:11:44;4.10;;;2.10;;
68523;SDS011;55524;51.380;13.372;2023-01-16T17:14:11;4.20;;;2.58;;
68523;SDS011;55524;51.380;13.372;2023-01-16T17:16:37;12.38;;;3.03;;
68523;SDS011;55524;51.380;13.372;2023-01-16T17:19:18;10.07;;;3.90;;
68523;SDS011;55524;51.380;13.372;2023-01-16T17:21:47;6.38;;;2.05;;
68523;SDS011;55524;51.380;13.372;2023-01-16T17:24:18;3.75;;;1.63;;
68523;SDS011;55524;51.380;13.372;2023-01-16T17:26:45;3.42;;;1.48;;
68523;SDS011;55524;51.380;13.372;2023-01-16T17:29:11;4.60;;;1.40;;
68523;SDS011;55524;51.380;13.372;2023-01-16T17:31:40;6.50;;;1.52;;
68523;SDS011;55524;51.380;13.372;2023-01-16T17:34:14;4.55;;;1.77;;
68523;SDS011;55524;51.380;13.372;2023-01-16T17:36:42;3.38;;;1.77;;
68523;SDS011;55524;51.380;13.372;2023-01-16T17:39:11;5.97;;;1.65;;
68523;SDS011;55524;51.380;13.372;2023-01-16T17:41:38;2.58;;;2.00;;
68523;SDS011;55524;51.380;13.372;2023-01-16T17:47:02;5.43;;;2.33;;
68523;SDS011;55524;51.380;13.372;2023-01-16T17:49:29;4.22;;;2.50;;
68523;SDS011;55524;51.380;13.372;2023-01-16T17:51:56;4.70;;;1.98;;
68523;SDS011;55524;51.380;13.372;2023-01-16T17:54:22;2.75;;;1.90;;
68523;SDS011;55524;51.380;13.372;2023-01-16T17:57:07;3.38;;;1.67;;
68523;SDS011;55524;51.380;13.372;2023-01-16T17:59:34;2.17;;;1.42;;
68523;SDS011;55524;51.380;13.372;2023-01-16T18:02:00;2.97;;;1.70;;
68523;SDS011;55524;51.380;13.372;2023-01-16T18:04:26;3.28;;;1.85;;
68523;SDS011;55524;51.380;13.372;2023-01-16T18:06:57;2.85;;;1.67;;
68523;SDS011;55524;51.380;13.372;2023-01-16T18:09:24;4.20;;;1.70;;
68523;SDS011;55524;51.380;13.372;2023-01-16T18:11:51;2.40;;;1.70;;
68523;SDS011;55524;51.380;13.372;2023-01-16T18:14:35;4.03;;;1.50;;
68523;SDS011;55524;51.380;13.372;2023-01-16T18:17:20;2.80;;;1.77;;
68523;SDS011;55524;51.380;13.372;2023-01-16T18:19:48;2.95;;;1.75;;
68523;SDS011;55524;51.380;13.372;2023-01-16T18:22:22;5.32;;;1.88;;
68523;SDS011;55524;51.380;13.372;2023-01-16T18:24:50;3.55;;;2.03;;
68523;SDS011;55524;51.380;13.372;2023-01-16T18:27:17;5.35;;;1.80;;
68523;SDS011;55524;51.380;13.372;2023-01-16T18:29:44;2.60;;;1.60;;
68523;SDS011;55524;51.380;13.372;2023-01-16T18:32:12;2.05;;;1.60;;
68523;SDS011;55524;51.380;13.372;2023-01-16T18:34:57;2.40;;;1.70;;
68523;SDS011;55524;51.380;13.372;2023-01-16T18:37:28;3.67;;;1.83;;
68523;SDS011;55524;51.380;13.372;2023-01-16T18:39:57;3.85;;;1.80;;
68523;SDS011;55524;51.380;13.372;2023-01-16T18:42:43;2.08;;;1.65;;
68523;SDS011;55524;51.380;13.372;2023-01-16T18:45:28;2.10;;;1.80;;
68523;SDS011;55524;51.380;13.372;2023-01-16T18:48:13;3.10;;;1.98;;
68523;SDS011;55524;51.380;13.372;2023-01-16T18:50:59;3.08;;;2.10;;
68523;SDS011;55524;51.380;13.372;2023-01-16T18:53:48;2.70;;;1.90;;
68523;SDS011;55524;51.380;13.372;2023-01-16T18:56:38;3.30;;;2.08;;
68523;SDS011;55524;51.380;13.372;2023-01-16T18:59:25;1.85;;;1.70;;
68523;SDS011;55524;51.380;13.372;2023-01-16T19:04:47;2.90;;;1.63;;
68523;SDS011;55524;51.380;13.372;2023-01-16T19:09:48;4.32;;;1.67;;
68523;SDS011;55524;51.380;13.372;2023-01-16T19:12:17;3.00;;;1.65;;
68523;SDS011;55524;51.380;13.372;2023-01-16T19:14:46;1.80;;;1.42;;
68523;SDS011;55524;51.380;13.372;2023-01-16T19:17:14;1.45;;;1.33;;
68523;SDS011;55524;51.380;13.372;2023-01-16T19:19:40;2.95;;;1.58;;
68523;SDS011;55524;51.380;13.372;2023-01-16T19:22:06;2.78;;;1.63;;
68523;SDS011;55524;51.380;13.372;2023-01-16T19:24:33;2.53;;;2.00;;
68523;SDS011;55524;51.380;13.372;2023-01-16T19:27:01;2.70;;;2.00;;
68523;SDS011;55524;51.380;13.372;2023-01-16T19:29:28;2.08;;;1.70;;
68523;SDS011;55524;51.380;13.372;2023-01-16T19:31:55;2.55;;;2.20;;
68523;SDS011;55524;51.380;13.372;2023-01-16T19:34:29;3.72;;;2.50;;
68523;SDS011;55524;51.380;13.372;2023-01-16T19:36:59;3.17;;;1.85;;
68523;SDS011;55524;51.380;13.372;2023-01-16T19:39:30;2.55;;;1.85;;
68523;SDS011;55524;51.380;13.372;2023-01-16T19:41:57;2.22;;;1.55;;
68523;SDS011;55524;51.380;13.372;2023-01-16T19:44:42;2.83;;;1.45;;
68523;SDS011;55524;51.380;13.372;2023-01-16T19:47:26;1.42;;;1.33;;
68523;SDS011;55524;51.380;13.372;2023-01-16T19:49:54;1.73;;;1.30;;
68523;SDS011;55524;51.380;13.372;2023-01-16T19:52:21;3.13;;;1.60;;
68523;SDS011;55524;51.380;13.372;2023-01-16T19:54:47;1.95;;;1.27;;
68523;SDS011;55524;51.380;13.372;2023-01-16T19:57:13;4.80;;;1.52;;
68523;SDS011;55524;51.380;13.372;2023-01-16T19:59:40;2.47;;;1.60;;
68523;SDS011;55524;51.380;13.372;2023-01-16T20:02:07;3.60;;;1.50;;
68523;SDS011;55524;51.380;13.372;2023-01-16T20:04:38;2.40;;;1.45;;
68523;SDS011;55524;51.380;13.372;2023-01-16T20:07:10;2.60;;;1.50;;
68523;SDS011;55524;51.380;13.372;2023-01-16T20:09:41;1.80;;;1.70;;
68523;SDS011;55524;51.380;13.372;2023-01-16T20:12:11;4.80;;;1.80;;
68523;SDS011;55524;51.380;13.372;2023-01-16T20:14:57;1.50;;;1.40;;
68523;SDS011;55524;51.380;13.372;2023-01-16T20:17:25;1.55;;;1.30;;
68523;SDS011;55524;51.380;13.372;2023-01-16T20:19:53;2.35;;;1.65;;
68523;SDS011;55524;51.380;13.372;2023-01-16T20:22:20;1.95;;;1.60;;
68523;SDS011;55524;51.380;13.372;2023-01-16T20:24:47;1.95;;;1.75;;
68523;SDS011;55524;51.380;13.372;2023-01-16T20:27:14;2.05;;;1.60;;
68523;SDS011;55524;51.380;13.372;2023-01-16T20:29:42;3.08;;;1.77;;
68523;SDS011;55524;51.380;13.372;2023-01-16T20:32:10;3.13;;;1.98;;
68523;SDS011;55524;51.380;13.372;2023-01-16T20:34:37;3.47;;;1.98;;
68523;SDS011;55524;51.380;13.372;2023-01-16T20:37:03;2.03;;;1.65;;
68523;SDS011;55524;51.380;13.372;2023-01-16T20:39:30;2.08;;;1.70;;
68523;SDS011;55524;51.380;13.372;2023-01-16T20:41:56;3.22;;;2.03;;
68523;SDS011;55524;51.380;13.372;2023-01-16T20:44:41;2.97;;;1.70;;
68523;SDS011;55524;51.380;13.372;2023-01-16T20:47:27;3.10;;;1.73;;
68523;SDS011;55524;51.380;13.372;2023-01-16T20:49:55;2.70;;;1.80;;
68523;SDS011;55524;51.380;13.372;2023-01-16T20:52:22;1.88;;;1.70;;
68523;SDS011;55524;51.380;13.372;2023-01-16T20:54:49;2.25;;;1.70;;
68523;SDS011;55524;51.380;13.372;2023-01-16T20:57:16;2.15;;;1.60;;
68523;SDS011;55524;51.380;13.372;2023-01-16T20:59:42;3.55;;;1.90;;
68523;SDS011;55524;51.380;13.372;2023-01-16T21:02:10;3.67;;;1.80;;
68523;SDS011;55524;51.380;13.372;2023-01-16T21:04:38;2.75;;;2.30;;
68523;SDS011;55524;51.380;13.372;2023-01-16T21:07:05;2.13;;;1.70;;
68523;SDS011;55524;51.380;13.372;2023-01-16T21:09:32;2.63;;;1.80;;
68523;SDS011;55524;51.380;13.372;2023-01-16T21:11:58;2.65;;;1.55;;
68523;SDS011;55524;51.380;13.372;2023-01-16T21:14:43;4.80;;;1.90;;
68523;SDS011;55524;51.380;13.372;2023-01-16T21:17:11;2.45;;;1.70;;
68523;SDS011;55524;51.380;13.372;2023-01-16T21:19:56;1.88;;;1.60;;
68523;SDS011;55524;51.380;13.372;2023-01-16T21:22:41;3.15;;;1.65;;
68523;SDS011;55524;51.380;13.372;2023-01-16T21:25:09;2.17;;;1.55;;
68523;SDS011;55524;51.380;13.372;2023-01-16T21:27:37;6.97;;;2.05;;
68523;SDS011;55524;51.380;13.372;2023-01-16T21:30:05;2.30;;;2.05;;
68523;SDS011;55524;51.380;13.372;2023-01-16T21:32:34;1.98;;;1.80;;
68523;SDS011;55524;51.380;13.372;2023-01-16T21:35:00;1.52;;;1.30;;
68523;SDS011;55524;51.380;13.372;2023-01-16T21:37:27;1.95;;;1.65;;
68523;SDS011;55524;51.380;13.372;2023-01-16T21:39:54;2.75;;;1.85;;
68523;SDS011;55524;51.380;13.372;2023-01-16T21:42:23;3.00;;;1.80;;
68523;SDS011;55524;51.380;13.372;2023-01-16T21:45:11;1.80;;;1.50;;
68523;SDS011;55524;51.380;13.372;2023-01-16T21:47:57;2.53;;;1.90;;
68523;SDS011;55524;51.380;13.372;2023-01-16T21:50:27;2.53;;;2.10;;
68523;SDS011;55524;51.380;13.372;2023-01-16T21:52:53;2.13;;;1.73;;
68523;SDS011;55524;51.380;13.372;2023-01-16T21:55:20;4.25;;;2.00;;
68523;SDS011;55524;51.380;13.372;2023-01-16T21:57:46;2.67;;;1.60;;
68523;SDS011;55524;51.380;13.372;2023-01-16T22:00:13;4.80;;;2.05;;
68523;SDS011;55524;51.380;13.372;2023-01-16T22:02:40;4.32;;;2.00;;
68523;SDS011;55524;51.380;13.372;2023-01-16T22:05:09;5.70;;;1.77;;
68523;SDS011;55524;51.380;13.372;2023-01-16T22:07:36;4.95;;;2.10;;
68523;SDS011;55524;51.380;13.372;2023-01-16T22:10:05;3.72;;;2.17;;
68523;SDS011;55524;51.380;13.372;2023-01-16T22:12:33;3.17;;;1.70;;
68523;SDS011;55524;51.380;13.372;2023-01-16T22:15:18;4.13;;;1.95;;
68523;SDS011;55524;51.380;13.372;2023-01-16T22:18:03;3.22;;;1.70;;
68523;SDS011;55524;51.380;13.372;2023-01-16T22:20:49;2.15;;;1.95;;
68523;SDS011;55524;51.380;13.372;2023-01-16T22:23:21;4.28;;;2.15;;
68523;SDS011;55524;51.380;13.372;2023-01-16T22:25:49;2.40;;;2.10;;
68523;SDS011;55524;51.380;13.372;2023-01-16T22:28:16;2.33;;;2.00;;
68523;SDS011;55524;51.380;13.372;2023-01-16T22:30:50;2.92;;;2.17;;
68523;SDS011;55524;51.380;13.372;2023-01-16T22:33:18;3.15;;;1.95;;
68523;SDS011;55524;51.380;13.372;2023-01-16T22:35:54;1.88;;;1.70;;
68523;SDS011;55524;51.380;13.372;2023-01-16T22:38:26;2.80;;;2.08;;
68523;SDS011;55524;51.380;13.372;2023-01-16T22:40:58;2.35;;;2.10;;
68523;SDS011;55524;51.380;13.372;2023-01-16T22:43:26;2.38;;;2.13;;
68523;SDS011;55524;51.380;13.372;2023-01-16T22:46:10;3.50;;;1.90;;
68523;SDS011;55524;51.380;13.372;2023-01-16T22:48:46;2.60;;;2.08;;
68523;SDS011;55524;51.380;13.372;2023-01-16T22:51:16;3.13;;;2.00;;
68523;SDS011;55524;51.380;13.372;2023-01-16T22:53:43;2.20;;;2.00;;
68523;SDS011;55524;51.380;13.372;2023-01-16T22:56:10;2.60;;;1.77;;
68523;SDS011;55524;51.380;13.372;2023-01-16T22:58:36;2.65;;;2.05;;
68523;SDS011;55524;51.380;13.372;2023-01-16T23:01:13;2.72;;;1.92;;
68523;SDS011;55524;51.380;13.372;2023-01-16T23:03:41;2.75;;;1.73;;
68523;SDS011;55524;51.380;13.372;2023-01-16T23:06:08;3.00;;;2.10;;
68523;SDS011;55524;51.380;13.372;2023-01-16T23:08:36;2.47;;;2.10;;
68523;SDS011;55524;51.380;13.372;2023-01-16T23:11:17;4.57;;;1.98;;
68523;SDS011;55524;51.380;13.372;2023-01-16T23:13:44;2.85;;;2.20;;
68523;SDS011;55524;51.380;13.372;2023-01-16T23:16:10;3.67;;;2.22;;
68523;SDS011;55524;51.380;13.372;2023-01-16T23:18:36;3.65;;;1.92;;
68523;SDS011;55524;51.380;13.372;2023-01-16T23:21:03;2.30;;;1.98;;
68523;SDS011;55524;51.380;13.372;2023-01-16T23:23:29;2.88;;;1.63;;
68523;SDS011;55524;51.380;13.372;2023-01-16T23:25:55;2.40;;;1.70;;
68523;SDS011;55524;51.380;13.372;2023-01-16T23:28:21;2.67;;;1.75;;
68523;SDS011;55524;51.380;13.372;2023-01-16T23:30:48;1.95;;;1.80;;
68523;SDS011;55524;51.380;13.372;2023-01-16T23:33:14;1.67;;;1.58;;
68523;SDS011;55524;51.380;13.372;2023-01-16T23:35:42;1.92;;;1.70;;
68523;SDS011;55524;51.380;13.372;2023-01-16T23:38:09;1.88;;;1.67;;
68523;SDS011;55524;51.380;13.372;2023-01-16T23:40:39;2.25;;;1.70;;
68523;SDS011;55524;51.380;13.372;2023-01-16T23:43:06;1.85;;;1.60;;
68523;SDS011;55524;51.380;13.372;2023-01-16T23:45:52;4.82;;;1.88;;
68523;SDS011;55524;51.380;13.372;2023-01-16T23:48:19;2.40;;;1.67;;
68523;SDS011;55524;51.380;13.372;2023-01-16T23:50:45;2.63;;;1.73;;
68523;SDS011;55524;51.380;13.372;2023-01-16T23:53:11;2.17;;;1.92;;
68523;SDS011;55524;51.380;13.372;2023-01-16T23:55:37;3.30;;;2.05;;
68523;SDS011;55524;51.380;13.372;2023-01-16T23:58:04;3.55;;;1.75;;
